This is the latest recevied weather packets stored in our database for station/object LZ0VRC-10. If no packets are shown the sender has not sent any weather packets the latest 1 day(s).
| Time | Temp. | Humidity | Pressure | Rain* | Wind** | Luminosity | Snow |
|---|---|---|---|---|---|---|---|
| 1777816210 | 13.33° C | 40% | 1022.5 hPa | - | - | - | - |
| 1777816205 | 13.33° C | 40% | 1022.5 hPa | - | - | - | - |
| 1777815310 | 12.78° C | 41% | 1022.6 hPa | - | - | - | - |
| 1777815305 | 12.78° C | 41% | 1022.6 hPa | - | - | - | - |
| 1777814405 | 13.33° C | 40% | 1022.8 hPa | - | - | - | - |
| 1777813510 | 13.89° C | 40% | 1022.9 hPa | - | - | - | - |
| 1777813505 | 13.89° C | 40% | 1022.9 hPa | - | - | - | - |
| 1777812610 | 14.44° C | 38% | 1023 hPa | - | - | - | - |
| 1777812605 | 14.44° C | 38% | 1023 hPa | - | - | - | - |
| 1777811705 | 15.56° C | 36% | 1023.1 hPa | - | - | - | - |
| 1777810810 | 16.11° C | 36% | 1023.2 hPa | - | - | - | - |
| 1777810805 | 16.11° C | 36% | 1023.2 hPa | - | - | - | - |
| 1777809905 | 14.44° C | 39% | 1023.3 hPa | - | - | - | - |
| 1777809005 | 13.33° C | 42% | 1023.4 hPa | - | - | - | - |
| 1777808110 | 11.11° C | 45% | 1023.4 hPa | - | - | - | - |
| 1777808105 | 11.11° C | 45% | 1023.4 hPa | - | - | - | - |
| 1777807210 | 11.67° C | 46% | 1023.5 hPa | - | - | - | - |
| 1777807205 | 11.67° C | 46% | 1023.5 hPa | - | - | - | - |
| 1777806305 | 11.67° C | 41% | 1023.5 hPa | - | - | - | - |
| 1777805410 | 12.22° C | 42% | 1023.5 hPa | - | - | - | - |
| 1777805405 | 12.22° C | 42% | 1023.5 hPa | - | - | - | - |
| 1777804510 | 17.22° C | 32% | 1023.6 hPa | - | - | - | - |
| 1777804505 | 17.22° C | 32% | 1023.6 hPa | - | - | - | - |
| 1777803605 | 14.44° C | 37% | 1023.7 hPa | - | - | - | - |
| 1777802710 | 15° C | 35% | 1023.9 hPa | - | - | - | - |
* Rain since midnight (hover to see other rain measurements)
** Current wind speed in m/s (hover to see current wind gust speed)